Time;durP1;ratioP1;P1;durP2;ratioP2;P2;SDS_P1;SDS_P2;PMS_P1;PMS_P2;Temp;Humidity;BMP_temperature;BMP_pressure;BME280_temperature;BME280_humidity;BME280_pressure;Samples;Min_cycle;Max_cycle;Signal;HPM_P1;HPM_P2
2022/03/21 00:02:25;;;;;;;11.73;5.38;;;-3.00;85.10;;;;;;5093310;28;20035;-79
2022/03/21 00:04:51;;;;;;;12.57;6.78;;;-2.90;85.10;;;;;;5092907;28;20067;-78
2022/03/21 00:07:18;;;;;;;15.70;6.72;;;-2.90;85.10;;;;;;5093395;28;20497;-79
2022/03/21 00:09:43;;;;;;;16.85;7.22;;;-2.90;84.90;;;;;;5093404;28;20028;-79
2022/03/21 00:12:14;;;;;;;13.70;6.68;;;-2.90;84.80;;;;;;5093273;28;20020;-79
2022/03/21 00:14:42;;;;;;;17.27;7.30;;;-2.90;84.80;;;;;;5093102;28;20024;-79
2022/03/21 00:17:09;;;;;;;18.08;7.45;;;-2.80;84.80;;;;;;5092910;28;20043;-79
2022/03/21 00:19:35;;;;;;;14.13;7.60;;;-2.90;84.70;;;;;;5092980;28;20024;-79
2022/03/21 00:22:01;;;;;;;14.20;7.60;;;-2.90;84.80;;;;;;5094055;28;20024;-79
2022/03/21 00:24:26;;;;;;;14.07;6.57;;;-2.90;84.80;;;;;;5093166;28;20020;-79
2022/03/21 00:26:52;;;;;;;13.93;7.40;;;-2.80;85.00;;;;;;5092922;28;20097;-79
2022/03/21 00:29:18;;;;;;;13.23;7.25;;;-2.80;84.90;;;;;;5092882;28;20024;-79
2022/03/21 00:31:44;;;;;;;15.00;7.13;;;-2.80;85.10;;;;;;5092716;28;20024;-84
2022/03/21 00:34:10;;;;;;;14.95;6.93;;;-2.80;85.20;;;;;;5092915;28;20012;-79
2022/03/21 00:36:36;;;;;;;13.32;7.32;;;-2.90;85.30;;;;;;5092464;28;20039;-79
2022/03/21 00:39:02;;;;;;;13.65;7.93;;;-2.90;85.50;;;;;;5092989;28;20020;-79
2022/03/21 00:41:31;;;;;;;12.18;7.22;;;-2.90;85.60;;;;;;5092803;28;20086;-78
2022/03/21 00:43:57;;;;;;;15.30;7.53;;;-2.90;85.40;;;;;;5092359;28;20063;-78
2022/03/21 00:46:23;;;;;;;15.32;6.72;;;-2.90;85.40;;;;;;5092270;28;20029;-78
2022/03/21 00:48:49;;;;;;;12.43;6.30;;;-3.00;85.40;;;;;;5092446;28;20023;-78
2022/03/21 00:51:14;;;;;;;15.13;7.35;;;-3.00;85.40;;;;;;5093688;28;20024;-78
2022/03/21 00:53:40;;;;;;;15.45;7.30;;;-3.00;85.80;;;;;;5092999;28;20024;-80
2022/03/21 00:56:05;;;;;;;13.20;6.50;;;-3.10;86.40;;;;;;5093456;28;20082;-78
2022/03/21 00:58:31;;;;;;;14.82;7.18;;;-3.20;93.60;;;;;;5092234;28;20020;-78
2022/03/21 01:00:57;;;;;;;12.20;6.70;;;-3.30;94.10;;;;;;5092306;28;20475;-79
2022/03/21 01:03:22;;;;;;;11.85;6.45;;;-3.30;93.20;;;;;;5092423;28;20118;-79
2022/03/21 01:05:48;;;;;;;13.65;7.22;;;-3.50;87.70;;;;;;5092039;28;20038;-79
2022/03/21 01:08:13;;;;;;;14.40;6.60;;;-3.50;88.10;;;;;;5093715;28;20374;-79
2022/03/21 01:10:39;;;;;;;12.23;6.22;;;-3.50;88.60;;;;;;5092389;28;20024;-81
2022/03/21 01:13:05;;;;;;;16.40;7.13;;;-3.40;88.70;;;;;;5091930;28;20024;-81
2022/03/21 01:15:31;;;;;;;18.35;6.93;;;-3.40;88.60;;;;;;5091477;28;20028;-79
2022/03/21 01:17:58;;;;;;;12.52;6.25;;;-3.40;88.80;;;;;;5091787;28;20031;-79
2022/03/21 01:20:25;;;;;;;12.40;6.97;;;-3.40;89.00;;;;;;5091654;28;20379;-80
2022/03/21 01:22:51;;;;;;;17.27;6.07;;;-3.40;89.00;;;;;;5091801;28;20021;-78
2022/03/21 01:25:18;;;;;;;12.15;6.05;;;-3.50;89.20;;;;;;5091489;28;20510;-78
2022/03/21 01:27:44;;;;;;;11.75;6.57;;;-3.50;89.30;;;;;;5091480;28;20017;-78
2022/03/21 01:30:12;;;;;;;14.35;6.15;;;-3.40;89.20;;;;;;5092494;28;20540;-80
2022/03/21 01:32:38;;;;;;;16.25;7.43;;;-3.50;89.00;;;;;;5091426;28;20016;-78
2022/03/21 01:35:05;;;;;;;12.30;7.25;;;-3.50;89.10;;;;;;5091741;28;20023;-80
2022/03/21 01:37:31;;;;;;;14.23;6.40;;;-3.50;89.00;;;;;;5091683;28;20051;-79
2022/03/21 01:39:57;;;;;;;14.95;6.55;;;-3.40;89.10;;;;;;5092052;28;20472;-79
2022/03/21 01:42:22;;;;;;;11.75;6.05;;;-3.50;88.80;;;;;;5091669;28;20020;-78
2022/03/21 01:44:52;;;;;;;14.60;7.05;;;-3.50;88.70;;;;;;5091571;28;20024;-78
2022/03/21 01:47:17;;;;;;;15.55;6.40;;;-3.50;88.60;;;;;;5091348;28;20040;-79
2022/03/21 01:49:44;;;;;;;13.98;6.47;;;-3.50;88.60;;;;;;5092780;28;20026;-81
2022/03/21 01:52:09;;;;;;;17.65;6.97;;;-3.50;88.80;;;;;;5091641;28;20107;-81
2022/03/21 01:57:21;;;;;;;13.75;6.43;;;-3.60;89.10;;;;;;5092761;28;20441;-80
2022/03/21 01:59:48;;;;;;;15.02;6.47;;;-3.60;89.30;;;;;;5091317;28;20024;-79
2022/03/21 02:02:13;;;;;;;13.80;7.30;;;-3.60;89.50;;;;;;5091610;28;20024;-79
2022/03/21 02:04:39;;;;;;;12.95;6.32;;;-3.70;89.60;;;;;;5091618;28;20031;-78
2022/03/21 02:07:05;;;;;;;13.30;6.47;;;-3.60;89.70;;;;;;5091376;28;20387;-79
2022/03/21 02:09:31;;;;;;;14.43;6.93;;;-3.60;89.70;;;;;;5091753;28;20031;-79
2022/03/21 02:11:57;;;;;;;15.75;7.20;;;-3.60;89.50;;;;;;5091633;28;20024;-78
2022/03/21 02:14:23;;;;;;;12.40;6.53;;;-3.60;89.50;;;;;;5092652;28;20024;-79
2022/03/21 02:16:49;;;;;;;11.95;6.45;;;-3.70;89.80;;;;;;5091231;28;20028;-79
2022/03/21 02:19:28;;;;;;;13.85;6.30;;;-3.80;89.90;;;;;;5092655;28;20032;-78
2022/03/21 02:22:31;;;;;;;10.82;6.70;;;-3.80;90.00;;;;;;5091357;28;20085;-78
2022/03/21 02:25:22;;;;;;;12.63;6.80;;;-3.70;90.00;;;;;;5091266;28;20439;-79
2022/03/21 02:27:50;;;;;;;11.95;6.47;;;-3.80;90.10;;;;;;5085529;28;20078;-78
2022/03/21 02:30:15;;;;;;;12.82;6.75;;;-3.80;90.20;;;;;;5095023;28;20035;-79
2022/03/21 02:32:42;;;;;;;17.08;7.55;;;-3.80;90.30;;;;;;5095233;28;20032;-79
2022/03/21 02:35:09;;;;;;;13.55;7.93;;;-3.90;90.40;;;;;;5094671;28;20542;-80
2022/03/21 02:37:37;;;;;;;15.13;7.45;;;-4.00;90.70;;;;;;5094687;28;20039;-78
2022/03/21 02:40:04;;;;;;;10.25;6.25;;;-4.10;90.80;;;;;;5094769;28;20059;-79
2022/03/21 02:42:29;;;;;;;12.65;6.68;;;-4.20;91.10;;;;;;5094708;28;20055;-80
2022/03/21 02:44:56;;;;;;;13.18;7.13;;;-4.20;91.20;;;;;;5094874;28;20081;-79
2022/03/21 02:47:22;;;;;;;9.02;6.30;;;-4.20;91.20;;;;;;5094579;28;20044;-78
2022/03/21 02:49:50;;;;;;;16.75;7.13;;;-4.20;91.30;;;;;;5094365;28;20077;-78
2022/03/21 02:52:17;;;;;;;11.55;6.68;;;-4.20;91.40;;;;;;5094478;28;20028;-79
2022/03/21 02:54:43;;;;;;;15.38;7.38;;;-4.20;91.60;;;;;;5094232;28;20058;-79
2022/03/21 02:57:08;;;;;;;16.42;6.53;;;-4.30;91.70;;;;;;5095685;28;20071;-79
2022/03/21 02:59:34;;;;;;;16.75;7.05;;;-4.30;91.80;;;;;;5094402;28;20042;-80
2022/03/21 03:02:00;;;;;;;15.18;6.95;;;-4.20;92.00;;;;;;5094463;28;20031;-79
2022/03/21 03:04:27;;;;;;;17.75;6.82;;;-4.20;92.00;;;;;;5094166;28;20084;-79
2022/03/21 03:06:53;;;;;;;14.85;6.63;;;-4.20;92.30;;;;;;5093948;28;20063;-79
2022/03/21 03:09:19;;;;;;;12.98;6.35;;;-4.10;91.90;;;;;;5094020;28;20024;-79
2022/03/21 03:11:44;;;;;;;12.63;5.97;;;-4.10;91.70;;;;;;5095428;28;20397;-78
2022/03/21 03:14:11;;;;;;;13.40;6.57;;;-4.20;91.60;;;;;;5094354;28;20379;-78
2022/03/21 03:16:36;;;;;;;12.05;7.10;;;-4.30;91.60;;;;;;5095591;28;20498;-79
2022/03/21 03:19:03;;;;;;;14.65;6.43;;;-4.40;91.70;;;;;;5093910;28;20024;-78
2022/03/21 03:21:58;;;;;;;12.68;6.20;;;-4.40;91.90;;;;;;5094075;28;20395;-79
2022/03/21 03:24:26;;;;;;;14.70;7.63;;;-4.50;92.20;;;;;;5073080;28;20345;-80
2022/03/21 03:26:52;;;;;;;11.77;5.78;;;-4.50;92.30;;;;;;5095233;28;20032;-79
2022/03/21 03:29:18;;;;;;;15.15;7.43;;;-4.50;92.60;;;;;;5094908;28;20020;-79
2022/03/21 03:31:45;;;;;;;15.23;6.50;;;-4.50;92.40;;;;;;5093998;28;20032;-79
2022/03/21 03:34:11;;;;;;;13.25;6.60;;;-4.50;92.50;;;;;;5093881;28;20421;-78
2022/03/21 03:36:38;;;;;;;12.23;5.90;;;-4.50;92.60;;;;;;5093774;28;20036;-78
2022/03/21 03:39:04;;;;;;;13.55;5.97;;;-4.60;92.70;;;;;;5092951;28;20020;-79
2022/03/21 03:41:30;;;;;;;16.08;6.47;;;-4.60;92.80;;;;;;5093967;28;20035;-79
2022/03/21 03:43:56;;;;;;;15.10;6.90;;;-4.60;92.90;;;;;;5095103;28;20032;-79
2022/03/21 03:46:22;;;;;;;15.27;6.93;;;-4.60;93.10;;;;;;5093343;28;20028;-78
2022/03/21 03:48:49;;;;;;;14.43;7.07;;;-4.60;93.20;;;;;;5093317;28;20051;-80
2022/03/21 03:51:16;;;;;;;12.35;6.53;;;-4.60;93.40;;;;;;5093493;28;20012;-79
2022/03/21 03:53:42;;;;;;;13.32;6.47;;;-4.60;93.60;;;;;;5093041;28;20023;-79
2022/03/21 03:56:08;;;;;;;15.32;6.90;;;-4.60;93.50;;;;;;5093339;28;20039;-79
2022/03/21 03:58:35;;;;;;;13.75;7.15;;;-4.70;93.50;;;;;;5093266;28;20492;-78
2022/03/21 04:01:04;;;;;;;16.25;7.93;;;-4.70;93.60;;;;;;5094806;28;20030;-79
2022/03/21 04:03:44;;;;;;;11.77;7.22;;;-4.70;93.60;;;;;;5093705;28;20024;-78
2022/03/21 04:06:11;;;;;;;17.48;7.82;;;-4.80;93.70;;;;;;5093246;28;20024;-79
2022/03/21 04:08:36;;;;;;;20.30;7.72;;;-4.80;94.00;;;;;;5093596;28;20026;-79
2022/03/21 04:11:02;;;;;;;14.57;6.95;;;-4.70;94.00;;;;;;5093362;28;20107;-79
2022/03/21 04:13:28;;;;;;;16.48;7.53;;;-4.70;94.00;;;;;;5093398;28;20052;-79
2022/03/21 04:15:54;;;;;;;18.95;7.75;;;-4.70;93.80;;;;;;5094142;28;20034;-79
2022/03/21 04:18:20;;;;;;;17.05;7.38;;;-4.60;93.70;;;;;;5093098;28;20117;-79
2022/03/21 04:20:50;;;;;;;17.02;8.02;;;-4.60;93.70;;;;;;5093075;28;20028;-79
2022/03/21 04:23:17;;;;;;;12.60;6.68;;;-4.60;93.70;;;;;;5093053;28;20032;-79
2022/03/21 04:25:43;;;;;;;19.00;7.60;;;-4.60;93.80;;;;;;5092851;28;20050;-79
2022/03/21 04:28:14;;;;;;;13.50;6.72;;;-4.60;93.80;;;;;;5092828;28;20120;-78
2022/03/21 04:30:40;;;;;;;15.57;8.38;;;-4.60;93.80;;;;;;5092899;28;20107;-78
2022/03/21 04:33:08;;;;;;;16.40;7.10;;;-4.60;93.70;;;;;;5092512;28;20020;-79
2022/03/21 04:35:35;;;;;;;15.98;9.13;;;-4.70;93.70;;;;;;5092999;28;20039;-80
2022/03/21 04:38:00;;;;;;;14.90;6.93;;;-4.70;93.70;;;;;;5092805;28;20039;-83
2022/03/21 04:40:26;;;;;;;14.55;7.43;;;-4.70;93.70;;;;;;5092537;28;20028;-78
2022/03/21 04:42:52;;;;;;;14.32;8.52;;;-4.70;93.60;;;;;;5092663;28;20115;-80
2022/03/21 04:45:18;;;;;;;16.00;8.35;;;-4.70;93.60;;;;;;5092311;28;20028;-79
2022/03/21 04:47:45;;;;;;;13.85;7.20;;;-4.70;93.60;;;;;;5092157;28;20048;-79
2022/03/21 04:50:11;;;;;;;17.65;6.72;;;-4.70;93.60;;;;;;5092412;28;20092;-79
2022/03/21 04:52:37;;;;;;;12.02;7.28;;;-4.70;93.60;;;;;;5092466;28;20024;-79
2022/03/21 04:55:05;;;;;;;13.63;7.13;;;-4.70;93.70;;;;;;5092326;28;20494;-79
2022/03/21 04:57:30;;;;;;;20.25;6.85;;;-4.80;93.80;;;;;;5093603;28;20028;-79
2022/03/21 04:59:56;;;;;;;14.70;7.30;;;-4.80;94.00;;;;;;5092741;28;20024;-79
2022/03/21 05:02:22;;;;;;;19.55;6.97;;;-4.90;94.50;;;;;;5092393;28;20028;-78
2022/03/21 05:04:48;;;;;;;16.55;6.30;;;-4.90;94.40;;;;;;5093612;28;20082;-77
2022/03/21 05:07:17;;;;;;;15.70;7.40;;;-5.00;94.40;;;;;;5092471;28;20077;-79
2022/03/21 05:09:48;;;;;;;14.30;8.10;;;-4.90;94.60;;;;;;5092436;28;20024;-79
2022/03/21 05:12:14;;;;;;;14.77;8.68;;;-5.00;99.60;;;;;;5092111;28;20059;-79
2022/03/21 05:14:40;;;;;;;17.52;8.13;;;-4.90;94.70;;;;;;5093202;28;20032;-80
2022/03/21 05:17:09;;;;;;;15.52;7.10;;;-4.90;94.70;;;;;;5091923;28;20066;-80
2022/03/21 05:19:35;;;;;;;17.92;7.07;;;-4.90;94.90;;;;;;5091766;28;20024;-80
2022/03/21 05:22:05;;;;;;;20.48;7.55;;;-4.90;94.90;;;;;;5093315;28;20023;-79
2022/03/21 05:32:44;;;;;;;21.83;7.90;;;-4.70;94.90;;;;;;5093447;28;20506;-79
2022/03/21 05:37:54;;;;;;;13.05;7.72;;;-4.70;94.80;;;;;;5093623;28;20035;-80
2022/03/21 05:40:34;;;;;;;19.35;8.65;;;-4.70;94.70;;;;;;5093092;28;20047;-81
2022/03/21 05:43:02;;;;;;;20.33;7.20;;;-4.60;94.80;;;;;;5092020;28;20050;-80
2022/03/21 05:45:28;;;;;;;14.57;6.72;;;-4.50;94.80;;;;;;5091640;28;20020;-83
2022/03/21 05:50:39;;;;;;;14.70;7.85;;;-4.50;94.80;;;;;;5093275;28;20135;-80
2022/03/21 05:53:08;;;;;;;20.75;7.60;;;-4.40;94.80;;;;;;5092467;28;20130;-80
2022/03/21 05:55:35;;;;;;;17.35;6.72;;;-4.40;94.80;;;;;;5095407;28;20032;-84
2022/03/21 05:58:00;;;;;;;20.50;7.50;;;-3.50;95.00;;;;;;5094006;28;20039;-81
2022/03/21 06:00:27;;;;;;;11.57;7.40;;;-3.70;99.90;;;;;;5096509;28;20459;-78
2022/03/21 06:02:53;;;;;;;20.02;8.63;;;-3.60;97.80;;;;;;5100765;28;20052;-81
2022/03/21 06:05:20;;;;;;;13.32;6.80;;;-3.60;95.90;;;;;;5096473;28;20048;-79
2022/03/21 06:07:47;;;;;;;13.50;7.20;;;-3.60;95.20;;;;;;5096636;28;20035;-81
2022/03/21 06:10:13;;;;;;;13.07;6.45;;;-3.60;94.70;;;;;;5096653;28;20028;-82
2022/03/21 06:12:40;;;;;;;11.00;6.47;;;-3.50;94.30;;;;;;5096933;28;20059;-81
2022/03/21 06:15:07;;;;;;;17.80;6.10;;;-3.50;93.90;;;;;;5096395;28;20024;-82
2022/03/21 06:17:52;;;;;;;17.77;6.88;;;-3.50;93.90;;;;;;5097554;28;20036;-80
2022/03/21 06:20:17;;;;;;;11.75;6.28;;;-3.40;93.70;;;;;;5095967;28;20074;-82
2022/03/21 06:22:43;;;;;;;11.70;6.78;;;-3.40;93.70;;;;;;5095637;28;20032;-79
2022/03/21 06:25:11;;;;;;;12.85;6.65;;;-3.30;94.00;;;;;;5095407;28;20104;-81
2022/03/21 06:27:37;;;;;;;15.60;7.18;;;-3.20;93.70;;;;;;5096681;28;20028;-79
2022/03/21 06:30:05;;;;;;;12.40;6.63;;;-3.20;93.50;;;;;;5096652;28;20107;-82
2022/03/21 06:32:30;;;;;;;13.60;6.68;;;-3.10;93.60;;;;;;5095526;28;20021;-82
2022/03/21 06:34:57;;;;;;;20.38;7.40;;;-2.90;93.30;;;;;;5095919;28;20146;-84
2022/03/21 06:37:23;;;;;;;11.88;6.57;;;-2.80;93.10;;;;;;5096921;28;20502;-82
2022/03/21 06:39:48;;;;;;;14.77;7.28;;;-2.70;92.80;;;;;;5096009;28;20024;-80
2022/03/21 06:42:14;;;;;;;19.38;8.23;;;-2.50;92.50;;;;;;5095951;28;20054;-82
2022/03/21 06:44:41;;;;;;;12.82;6.38;;;-2.40;92.00;;;;;;5096549;28;20459;-80
2022/03/21 06:47:08;;;;;;;10.35;6.43;;;-2.30;92.00;;;;;;5096954;28;20101;-81
2022/03/21 06:49:33;;;;;;;17.98;6.32;;;-2.20;91.70;;;;;;5097478;28;20032;-81
2022/03/21 06:52:03;;;;;;;11.57;6.45;;;-2.10;91.50;;;;;;5096987;28;20424;-83
2022/03/21 06:54:32;;;;;;;12.98;6.82;;;-1.90;91.30;;;;;;5095857;28;20028;-81
2022/03/21 06:56:58;;;;;;;17.40;6.43;;;-1.80;90.90;;;;;;5095363;28;20097;-81
2022/03/21 06:59:24;;;;;;;11.48;6.13;;;-1.60;90.50;;;;;;5097134;28;20482;-81
2022/03/21 07:01:50;;;;;;;12.63;6.40;;;-1.50;90.40;;;;;;5095356;28;20425;-80
2022/03/21 07:04:16;;;;;;;15.57;6.50;;;-1.30;90.10;;;;;;5095446;28;20017;-78
2022/03/21 07:06:42;;;;;;;11.40;5.47;;;-1.10;89.60;;;;;;5095959;28;20027;-80
2022/03/21 07:09:07;;;;;;;9.18;5.78;;;-0.90;87.90;;;;;;5095024;28;20024;-80
2022/03/21 07:11:35;;;;;;;14.60;6.55;;;-0.70;86.20;;;;;;5096099;28;20051;-78
2022/03/21 07:14:01;;;;;;;16.35;6.47;;;-0.50;84.50;;;;;;5093215;28;20066;-79
2022/03/21 07:16:27;;;;;;;10.57;6.18;;;-0.40;83.00;;;;;;5094662;28;20104;-79
2022/03/21 07:18:53;;;;;;;13.35;6.30;;;-0.30;81.00;;;;;;5094068;28;20028;-81
2022/03/21 07:21:19;;;;;;;11.50;6.05;;;-0.10;79.60;;;;;;5094533;28;20085;-84
2022/03/21 07:23:45;;;;;;;12.73;7.28;;;0.00;80.10;;;;;;5094601;28;20027;-79
2022/03/21 07:26:12;;;;;;;16.85;6.10;;;0.20;80.40;;;;;;5094226;28;20028;-79
2022/03/21 07:28:38;;;;;;;11.73;6.57;;;0.40;80.20;;;;;;5094598;28;20436;-82
2022/03/21 07:31:04;;;;;;;15.77;6.45;;;0.60;79.10;;;;;;5096373;28;20020;-79
2022/03/21 07:33:29;;;;;;;18.60;7.00;;;0.70;79.40;;;;;;5094427;28;20025;-79
2022/03/21 07:35:55;;;;;;;13.13;6.93;;;0.80;78.60;;;;;;5095262;28;20104;-81
2022/03/21 07:38:22;;;;;;;12.43;6.90;;;0.90;78.50;;;;;;5095337;28;20060;-79
2022/03/21 07:40:49;;;;;;;11.48;6.22;;;1.10;91.10;;;;;;5094305;28;20024;-81
2022/03/21 07:43:15;;;;;;;14.18;6.60;;;1.20;76.50;;;;;;5095087;28;20020;-79
2022/03/21 07:48:27;;;;;;;13.27;7.88;;;1.50;75.70;;;;;;5094920;28;20073;-79
2022/03/21 07:50:54;;;;;;;12.02;7.40;;;1.70;76.10;;;;;;5093967;28;20024;-79
2022/03/21 07:53:19;;;;;;;17.95;7.38;;;1.80;76.50;;;;;;5094171;28;20024;-81
2022/03/21 07:55:45;;;;;;;12.02;6.15;;;1.90;75.00;;;;;;5095093;28;20039;-82
2022/03/21 07:58:12;;;;;;;12.73;6.28;;;2.10;72.10;;;;;;5095147;28;20031;-81
2022/03/21 08:00:41;;;;;;;9.63;5.53;;;2.20;72.00;;;;;;5094913;28;20046;-85
2022/03/21 08:03:09;;;;;;;10.25;6.25;;;2.30;69.90;;;;;;5095056;28;20023;-81
2022/03/21 08:05:35;;;;;;;12.73;5.45;;;2.50;68.90;;;;;;5095215;28;20016;-85
2022/03/21 08:08:00;;;;;;;11.95;5.85;;;2.70;69.30;;;;;;5095279;28;20039;-84
2022/03/21 08:10:29;;;;;;;13.00;5.32;;;2.90;68.50;;;;;;5096343;28;20050;-83
2022/03/21 08:12:56;;;;;;;7.63;5.28;;;3.00;67.60;;;;;;5096236;28;20038;-85
2022/03/21 08:15:22;;;;;;;8.75;4.85;;;3.20;68.00;;;;;;5097175;28;20487;-82
2022/03/21 08:17:52;;;;;;;10.02;6.20;;;3.40;67.40;;;;;;5100305;28;20127;-83
2022/03/21 08:20:19;;;;;;;14.27;6.18;;;3.70;74.40;;;;;;5098151;28;20053;-83
2022/03/21 08:22:47;;;;;;;9.35;4.95;;;3.80;65.50;;;;;;5095157;28;20016;-85
2022/03/21 08:25:15;;;;;;;10.15;5.72;;;4.20;65.40;;;;;;5095094;28;20035;-84
2022/03/21 08:27:43;;;;;;;8.68;6.25;;;4.20;63.00;;;;;;5094802;28;20024;-85
2022/03/21 08:30:13;;;;;;;9.95;6.05;;;4.50;64.00;;;;;;5095244;28;20020;-82
2022/03/21 08:32:38;;;;;;;15.15;8.77;;;4.60;65.00;;;;;;5094161;28;20073;-82
2022/03/21 08:35:05;;;;;;;9.15;5.43;;;5.20;74.50;;;;;;5094271;28;20107;-82
2022/03/21 08:37:30;;;;;;;8.35;5.25;;;5.10;75.50;;;;;;5093933;28;20082;-82
2022/03/21 08:39:56;;;;;;;11.73;5.18;;;5.30;65.70;;;;;;5094173;28;20357;-81
2022/03/21 08:42:22;;;;;;;9.45;5.22;;;5.30;60.20;;;;;;5093632;28;20353;-82
2022/03/21 08:44:47;;;;;;;13.50;6.40;;;5.30;60.70;;;;;;5093114;28;20027;-81
2022/03/21 08:47:13;;;;;;;12.63;5.40;;;5.40;59.90;;;;;;5093101;28;20391;-82
2022/03/21 08:49:38;;;;;;;9.23;5.00;;;5.60;58.90;;;;;;5093558;28;20070;-86
2022/03/21 08:52:06;;;;;;;9.40;6.15;;;5.60;58.60;;;;;;5093397;28;20020;-83
2022/03/21 08:54:32;;;;;;;10.10;5.28;;;5.90;56.80;;;;;;5093583;28;20024;-82
2022/03/21 08:56:59;;;;;;;10.13;5.20;;;6.10;55.60;;;;;;5094277;28;20040;-82
2022/03/21 08:59:25;;;;;;;10.73;4.75;;;6.20;55.40;;;;;;5107844;28;20116;-83
2022/03/21 09:01:52;;;;;;;8.48;5.45;;;6.50;53.10;;;;;;5111239;28;20028;-81
2022/03/21 09:04:17;;;;;;;8.13;4.60;;;6.60;52.10;;;;;;5110161;28;20004;-82
2022/03/21 09:06:43;;;;;;;7.97;4.75;;;6.70;52.10;;;;;;5109212;28;20081;-81
2022/03/21 09:09:10;;;;;;;9.13;5.32;;;6.80;52.00;;;;;;5106295;28;20375;-80
2022/03/21 09:11:37;;;;;;;10.20;5.20;;;6.90;51.30;;;;;;5094199;28;20032;-81
2022/03/21 09:14:04;;;;;;;13.02;6.57;;;6.90;50.80;;;;;;5093278;28;20072;-82
2022/03/21 09:16:30;;;;;;;8.88;6.68;;;7.00;51.50;;;;;;5095983;28;20028;-84
2022/03/21 09:18:55;;;;;;;7.13;4.25;;;7.10;51.10;;;;;;5095372;28;20028;-82
2022/03/21 09:21:21;;;;;;;5.65;4.10;;;7.10;50.10;;;;;;5094980;28;20032;-83
2022/03/21 09:23:47;;;;;;;8.27;5.32;;;7.20;49.90;;;;;;5093257;28;20016;-82
2022/03/21 09:26:12;;;;;;;9.35;5.40;;;7.20;49.70;;;;;;5093164;28;20027;-84
2022/03/21 09:28:41;;;;;;;7.45;4.00;;;7.30;49.90;;;;;;5093641;28;20051;-86
2022/03/21 09:31:07;;;;;;;5.90;4.40;;;7.40;48.40;;;;;;5093594;28;20029;-82
2022/03/21 09:33:34;;;;;;;6.63;4.82;;;7.40;48.60;;;;;;5094518;28;20497;-84
2022/03/21 09:36:00;;;;;;;7.68;4.10;;;7.50;49.20;;;;;;5091867;28;20050;-82
2022/03/21 09:38:25;;;;;;;7.00;4.80;;;7.60;48.40;;;;;;5095020;28;20024;-83
2022/03/21 09:40:51;;;;;;;7.03;4.88;;;7.60;48.70;;;;;;5095917;28;20024;-84
2022/03/21 09:43:17;;;;;;;11.25;4.80;;;7.70;47.90;;;;;;5097728;28;20091;-84
2022/03/21 09:45:43;;;;;;;7.10;4.10;;;7.70;46.80;;;;;;5096518;28;20062;-83
2022/03/21 09:48:14;;;;;;;6.85;3.72;;;7.80;47.00;;;;;;5095319;28;20043;-80
2022/03/21 09:50:42;;;;;;;7.85;4.90;;;7.80;46.40;;;;;;5097001;28;20132;-79
2022/03/21 09:53:10;;;;;;;7.57;4.20;;;8.00;46.60;;;;;;5096116;28;20165;-81
2022/03/21 09:55:36;;;;;;;8.20;4.30;;;8.00;45.90;;;;;;5095661;28;20047;-80
2022/03/21 09:58:03;;;;;;;6.47;4.35;;;8.00;46.80;;;;;;5095615;28;20031;-79
2022/03/21 10:00:29;;;;;;;9.10;5.38;;;8.00;45.50;;;;;;5095221;28;20020;-79
2022/03/21 10:02:57;;;;;;;7.45;4.20;;;8.00;46.50;;;;;;5095582;28;20026;-79
2022/03/21 10:05:41;;;;;;;6.10;4.03;;;8.10;46.50;;;;;;5094765;28;20035;-81
2022/03/21 10:08:21;;;;;;;5.78;3.67;;;8.20;46.40;;;;;;5094811;28;20024;-77
2022/03/21 10:10:58;;;;;;;6.85;4.07;;;8.30;46.70;;;;;;5094650;28;20016;-78
2022/03/21 10:13:26;;;;;;;7.95;4.13;;;8.30;45.80;;;;;;5094745;28;20032;-78
2022/03/21 10:16:08;;;;;;;10.82;4.30;;;8.30;46.00;;;;;;5095961;28;20024;-78
2022/03/21 10:18:34;;;;;;;7.03;4.70;;;8.40;46.70;;;;;;5094584;28;20077;-79
2022/03/21 10:21:14;;;;;;;7.55;4.60;;;8.40;46.90;;;;;;5094728;28;20008;-81
2022/03/21 10:23:42;;;;;;;8.18;3.80;;;8.50;46.40;;;;;;5095679;28;20031;-79
2022/03/21 10:26:31;;;;;;;8.90;4.88;;;8.60;46.70;;;;;;5094543;28;20035;-78
2022/03/21 10:28:58;;;;;;;6.68;4.78;;;8.60;46.10;;;;;;5095814;28;20472;-79
2022/03/21 10:31:36;;;;;;;6.63;4.45;;;8.70;45.80;;;;;;5094518;28;20074;-76
2022/03/21 10:34:11;;;;;;;10.18;4.95;;;8.70;46.10;;;;;;5095564;28;20340;-75
2022/03/21 10:37:06;;;;;;;7.87;4.40;;;8.70;46.00;;;;;;5095194;28;20056;-75
2022/03/21 10:39:35;;;;;;;8.68;5.25;;;8.80;47.70;;;;;;5095062;28;20253;-75
2022/03/21 10:42:03;;;;;;;5.50;4.20;;;8.90;46.00;;;;;;5095488;28;20368;-74
2022/03/21 10:44:30;;;;;;;5.65;4.32;;;9.00;46.00;;;;;;5095606;28;20082;-79
2022/03/21 10:47:03;;;;;;;9.02;4.68;;;9.00;45.30;;;;;;5095263;28;20395;-77
2022/03/21 10:49:33;;;;;;;6.20;4.13;;;9.00;45.40;;;;;;5093851;28;20024;-81
2022/03/21 10:52:00;;;;;;;7.32;4.35;;;9.10;44.40;;;;;;5093824;28;20028;-79
2022/03/21 10:54:42;;;;;;;6.63;4.18;;;9.10;44.60;;;;;;5095073;28;20070;-82
2022/03/21 10:57:34;;;;;;;6.10;4.13;;;9.10;44.30;;;;;;5095554;28;20161;-78
2022/03/21 11:00:20;;;;;;;6.38;4.20;;;9.20;44.50;;;;;;5095591;28;20030;-81
2022/03/21 11:03:09;;;;;;;6.97;4.28;;;9.30;43.90;;;;;;5094009;28;20053;-76
2022/03/21 11:05:40;;;;;;;8.25;4.10;;;9.40;44.20;;;;;;5093782;28;20051;-79
2022/03/21 11:08:08;;;;;;;6.63;4.18;;;9.40;43.50;;;;;;5095110;28;20031;-78
2022/03/21 11:10:34;;;;;;;6.47;4.20;;;9.40;43.40;;;;;;5095276;28;20012;-79
2022/03/21 11:13:01;;;;;;;5.78;4.13;;;9.40;43.90;;;;;;5095144;28;20496;-79
2022/03/21 11:15:30;;;;;;;9.05;5.68;;;9.50;44.20;;;;;;5095097;28;20462;-81
2022/03/21 11:17:57;;;;;;;6.70;4.95;;;9.60;44.30;;;;;;5094715;28;20024;-78
2022/03/21 11:20:23;;;;;;;7.68;4.70;;;9.70;43.60;;;;;;5093784;28;20028;-77
2022/03/21 11:22:49;;;;;;;6.35;4.85;;;9.70;43.10;;;;;;5094863;28;20024;-78
2022/03/21 11:25:16;;;;;;;7.50;4.45;;;9.70;43.10;;;;;;5093698;28;20028;-77
2022/03/21 11:28:01;;;;;;;9.45;5.00;;;9.70;42.70;;;;;;5095037;28;20525;-84
2022/03/21 11:30:39;;;;;;;7.43;5.05;;;9.80;42.70;;;;;;5094824;28;20028;-81
2022/03/21 11:33:16;;;;;;;6.30;4.57;;;9.70;43.00;;;;;;5094865;28;20020;-77
2022/03/21 11:35:51;;;;;;;10.85;4.72;;;9.80;43.60;;;;;;5093303;28;20028;-83
2022/03/21 11:38:29;;;;;;;7.97;4.68;;;9.90;43.00;;;;;;5094645;28;20028;-78
2022/03/21 11:41:18;;;;;;;6.97;4.65;;;9.90;42.90;;;;;;5095247;28;20066;-78
2022/03/21 11:43:45;;;;;;;8.20;4.97;;;10.00;43.20;;;;;;5094869;28;20016;-81
2022/03/21 11:46:30;;;;;;;6.55;4.13;;;10.00;43.40;;;;;;5094514;28;20060;-79
2022/03/21 11:48:58;;;;;;;10.27;4.07;;;10.10;43.40;;;;;;5094059;28;20039;-78
2022/03/21 11:51:25;;;;;;;11.98;5.00;;;10.10;42.70;;;;;;5094258;28;20050;-77
2022/03/21 11:53:53;;;;;;;5.65;4.20;;;10.20;43.10;;;;;;5094701;28;20012;-78
2022/03/21 11:56:52;;;;;;;6.68;4.00;;;10.20;42.00;;;;;;5092881;28;20473;-78
2022/03/21 11:59:33;;;;;;;14.57;4.07;;;10.30;41.50;;;;;;5024213;28;20044;-79
2022/03/21 12:01:59;;;;;;;5.75;4.15;;;10.40;41.80;;;;;;5092815;28;20028;-77
2022/03/21 12:04:24;;;;;;;5.90;3.47;;;10.30;41.70;;;;;;5094501;28;20463;-80
2022/03/21 12:07:12;;;;;;;6.00;3.70;;;10.40;41.90;;;;;;5094558;28;20040;-81
2022/03/21 12:09:45;;;;;;;6.20;3.70;;;10.50;40.50;;;;;;5093762;28;20024;-77
2022/03/21 12:12:12;;;;;;;6.88;3.90;;;10.40;39.70;;;;;;5093991;28;20029;-80
2022/03/21 12:14:45;;;;;;;9.57;4.70;;;10.40;40.50;;;;;;5093640;28;20055;-79
2022/03/21 12:17:10;;;;;;;6.03;4.15;;;10.60;41.60;;;;;;5092594;28;20130;-80
2022/03/21 12:19:48;;;;;;;6.72;4.20;;;10.60;40.90;;;;;;5092147;28;20059;-82
2022/03/21 12:22:29;;;;;;;7.43;4.38;;;10.40;41.00;;;;;;5093480;28;20020;-79
2022/03/21 12:24:58;;;;;;;7.35;4.13;;;10.50;41.90;;;;;;5092982;28;20020;-77
2022/03/21 12:27:36;;;;;;;7.07;4.15;;;10.60;41.40;;;;;;5094457;28;20024;-79
2022/03/21 12:30:23;;;;;;;8.35;4.20;;;10.70;41.10;;;;;;5092550;28;20032;-83
2022/03/21 12:32:53;;;;;;;8.15;4.45;;;10.70;41.50;;;;;;5093950;28;20016;-79
2022/03/21 12:35:31;;;;;;;8.57;4.20;;;10.70;40.90;;;;;;5094895;28;20020;-79
2022/03/21 12:38:01;;;;;;;9.10;4.18;;;10.80;41.00;;;;;;5092314;28;20032;-81
2022/03/21 12:40:28;;;;;;;7.20;4.45;;;10.80;41.00;;;;;;5093660;28;20023;-82
2022/03/21 12:42:57;;;;;;;9.25;4.28;;;10.80;40.80;;;;;;5092250;28;20046;-82
2022/03/21 12:45:23;;;;;;;7.40;4.38;;;10.90;41.10;;;;;;5091928;28;20374;-84
2022/03/21 12:47:49;;;;;;;6.68;3.72;;;11.00;40.90;;;;;;5093117;28;20054;-79
2022/03/21 12:50:20;;;;;;;6.32;3.80;;;11.00;40.90;;;;;;5093388;28;20433;-81
2022/03/21 12:52:58;;;;;;;6.20;4.13;;;11.10;40.20;;;;;;5092164;28;20056;-78
2022/03/21 12:55:24;;;;;;;5.88;3.67;;;11.20;40.80;;;;;;5093105;28;20017;-79
2022/03/21 12:57:54;;;;;;;7.47;4.40;;;11.30;40.00;;;;;;5092259;28;20036;-79
2022/03/21 13:00:21;;;;;;;5.82;4.65;;;11.30;40.20;;;;;;5092221;28;20466;-79
2022/03/21 13:02:47;;;;;;;10.02;4.13;;;11.30;40.40;;;;;;5093189;28;20020;-78
2022/03/21 13:11:05;;;;;;;6.80;4.65;;;11.40;40.60;;;;;;5050919;28;20037;-79
2022/03/21 13:13:42;;;;;;;10.02;4.35;;;11.40;40.10;;;;;;5081768;28;20032;-79
2022/03/21 13:16:11;;;;;;;5.25;4.18;;;11.40;40.80;;;;;;5091651;28;20032;-81